Impacts METAR Board
IDs:

KPDX - Portland Intl Arpt, OR, US

Updated at: 1600 UTC 03 Dec 2021
Potential Impact None Slight Moderate High
Time 03/04Z 03/05Z 03/06Z 03/07Z 03/08Z 03/09Z 03/10Z 03/11Z 03/12Z 03/13Z 03/14Z 03/15Z 03/16Z
Temp47 45 45 45 43 43 42 41 39 38 38 38 37
Dewpt38 38 36 35 35 34 34 34 34 34 34 34 34
Altim30.34 30.34 30.34 30.34 30.35 30.33 30.32 30.32 30.31 30.31 30.30 30.29 30.29
VIS10 10 10 10 10 10 10 10 10 10 10 10 10
CIG230 210 210 220 220 230 -- -- -- -- -- -- 6
CoverBKNOVCOVCOVCOVCBKNFEWCLRCLRFEWSCTSCTOVC
FltCatVFRVFRVFRVFRVFRVFRVFRVFRVFRVFRVFRVFRIFR
WX--------------------------
WDir30033031031032032034033032034000350
WSpd7 7 6 8 7 6 4 4 5 3 0 0 5
WGst-- -- -- -- -- -- -- -- -- -- -- -- --
Raw hourly METARs
KPDX 030353Z 30007KT 10SM FEW050 BKN230 08/03 A3034 RMK AO2 SLP275 T00830033
KPDX 030453Z 33007KT 10SM FEW050 OVC210 07/03 A3034 RMK AO2 SLP273 T00720033
KPDX 030553Z 31006KT 10SM OVC210 07/02 A3034 RMK AO2 SLP274 T00720022 10106 20072 55002
KPDX 030653Z 31008KT 10SM BKN220 OVC250 07/02 A3034 RMK AO2 SLP274 T00720017
KPDX 030753Z 32007KT 10SM OVC220 06/02 A3035 RMK AO2 SLP275 T00610017 401220061
KPDX 030853Z 32006KT 10SM BKN230 06/01 A3033 RMK AO2 SLP269 T00610011 58005
KPDX 030953Z 34004KT 10SM FEW250 06/01 A3032 RMK AO2 SLP265 T00560011
KPDX 031053Z 33004KT 10SM CLR 05/01 A3032 RMK AO2 SLP264 T00500011
KPDX 031153Z 32005KT 10SM CLR 04/01 A3031 RMK AO2 SLP262 T00390011 10078 20039 56007
KPDX 031253Z 34003KT 10SM FEW050 03/01 A3031 RMK AO2 SLP263 T00330011
KPDX 031400Z 00000KT 10SM FEW008 SCT050 SCT250 03/01 A3030 RMK AO2 T00330011
KPDX 031453Z 00000KT 10SM SCT008 03/01 A3029 RMK AO2 SLP255 T00330011 58008
KPDX 031605Z 35005KT 10SM BKN006 OVC014 03/01 A3029 RMK AO2 T00280011



Page loaded:  16:15 UTC  |   08:15 AM Pacific  |   09:15 AM Mountain  |   10:15 AM Central  |   11:15 AM Eastern

 

ADVISORIES

FORECASTS

FORECASTS

OBSERVATIONS

USER TOOLS

ABOUT US